South Lyon, MI (48178)

7:50 PM EDT on October 25, 2014 (GMT -0400)
Eagle Pointe | Change Station
CLOSE
Current Station
Personal Weather Station
Location: South Lyon, MI
Elevation: 968 ft
Nearby Weather Stations

Elev 968 ft 42.46 °N, 83.64 °W | Updated 11 seconds ago

Clear
Clear
58.4 °F
Feels Like 58.4 °F
N
3.1
Wind Variable Wind from NW
Gusts 7.6 mph

Today
High -- | Low -- °F
--% Chance of Precip.
Yesterday
High -- | Low -- °F
Precip. -- in
7:59 AM 6:37 PM
Waxing Crescent, 5% visible
Pressure 29.78 in
Visibility 10.0 miles
Clouds Clear
Dew Point 31 °F
Humidity 35%
Rainfall 0.00 in
Snow Depth Not available.
UV 0 out of 12
Pollen 1.60 out of 12
PM2.5 Good
Flu Activity Sporadic
METAR KYIP 252253Z AUTO 28012KT 10SM CLR 18/M02 A2979 RMK AO2 PK WND 30035/2219 SLP084 T01781017 TSNO $

More Conditions Fewer Conditions

Pressure 29.78 in
Visibility 10.0 miles
Clouds Clear
Dew Point 31 °F
Humidity 35%
Rainfall 0.00 in
Snow Depth Not available.
UV 0 out of 12
Pollen 1.60 out of 12
PM2.5 Good
Flu Activity Sporadic
METAR KYIP 252253Z AUTO 28012KT 10SM CLR 18/M02 A2979 RMK AO2 PK WND 30035/2219 SLP084 T01781017 TSNO $

More Conditions Fewer Conditions

10-Day Weather Forecast

Almanac

Astronomy

Oct. 25, 2014 Rise Set
Actual Time 7:59 AM EDT 6:37 PM EDT
Civil Twilight 7:30 AM EDT 7:06 PM EDT
Nautical Twilight 6:57 AM EDT 7:38 PM EDT
Astronomical Twilight 6:25 AM EDT 8:11 PM EDT
Moon 9:38 AM EDT 7:57 PM EDT
Length of Visible Light 11h 35m
Length of Day
10h 37m
Tomorrow will be 2m 38s shorter.
Waxing Crescent, 5% of the Moon is Illuminated
Today
Waxing Crescent
Oct 30
First Quarter
Nov 6
Full
Nov 14
Last Quarter
Nov 22
New

Today's Extremes

State Highs State Lows

Community

WunderPhotos

Upload Photos

1,765,034 photos uploaded!

Nearby

Air Quality

  Air Quality AQ Index Pollutant
Yesterday Moderate
PM2.5
Current Good
PM2.5
Saturday Good
PM2.5
Sunday Good
PM2.5
Monday Moderate
PM2.5

Snow Depth

Station Depth Elevation
No new snow has been reported.

Earthquake Activity

City Distance Mag. Time & Date
No recent earthquake activity has been reported nearby.
Minimum magnitude displayed is 2.5.

Coastal Water Temperatures

Place Temperature
No Stations Reporting

Nearby Weather Stations